Stations météo

Publicité
Dourbes, Belgique (6455): Température de l'air & dewpoint: 17.10.2017 17:00:00 - 23.10.2017 17:00:00 (CEST)Dourbes, Belgique (6455): Vitesse du vent & gusts: 17.10.2017 17:00:00 - 23.10.2017 17:00:00 (CEST)Dourbes, Belgique (6455): Direction du vent: 17.10.2017 17:00:00 - 23.10.2017 17:00:00 (CEST)Dourbes, Belgique (6455): reduced air pressure: 17.10.2017 17:00:00 - 23.10.2017 17:00:00 (CEST)Dourbes, Belgique (6455): Ensoleillement: 17.10.2017 17:00:00 - 23.10.2017 17:00:00 (CEST)Dourbes, Belgique (6455): Quantités de précipitations: 17.10.2017 17:00:00 - 23.10.2017 17:00:00 (CEST)
Date & Time tt [°C] td [°C] ff [km/h] ff [knt] fx [km/h] fx [knt] dd ppp [hPa] sd [min] rr [mm]
23.10.2017 17:00:00 - - - - - - - - - -
23.10.2017 16:00:00 11,8 10,3 9 5 27 15 SW 1021,0 0 0,0
23.10.2017 15:00:00 12,5 10,5 11 6 25 14 SW 1020,7 0 0,0
23.10.2017 14:00:00 12,1 10,1 11 6 23 12 SW 1020,9 0 0,0
23.10.2017 13:00:00 10,9 9,9 11 6 24 13 SW 1021,0 0 0,0
23.10.2017 12:00:00 10,4 9,6 9 5 24 13 SW 1020,9 0 0,0
23.10.2017 11:00:00 10,0 9,7 9 5 17 9 SW 1020,7 0 0,0
23.10.2017 10:00:00 8,7 8,7 8 4 15 8 SW 1020,6 0 0,0
23.10.2017 09:00:00 7,4 7,3 6 3 13 7 SSW 1020,4 0 0,0
23.10.2017 08:00:00 7,1 7,1 7 4 13 7 SW 1020,3 0 0,0
23.10.2017 07:00:00 6,7 6,6 5 3 18 10 WSW 1020,2 0 0,0
23.10.2017 06:00:00 6,0 5,9 5 3 13 7 SW 1019,9 0 0,0
23.10.2017 05:00:00 6,7 6,6 6 4 14 8 SW 1019,5 0 0,0
23.10.2017 04:00:00 6,2 6,0 6 4 13 7 SW 1019,2 0 0,0
23.10.2017 03:00:00 6,9 6,6 7 4 17 9 WSW 1019,0 0 0,0
23.10.2017 02:00:00 6,4 5,9 7 4 15 8 SW 1018,9 0 0,0
23.10.2017 01:00:00 6,8 6,0 8 4 21 11 SSW 1018,8 0 0,0
23.10.2017 00:00:00 7,7 6,2 11 6 21 12 SW 1018,3 0 0,0
22.10.2017 23:00:00 7,8 6,0 8 4 16 9 SW 1017,8 0 0,0
22.10.2017 22:00:00 7,6 6,6 9 5 15 8 SW 1017,5 0 0,0
22.10.2017 21:00:00 7,5 6,6 7 4 16 9 SW 1017,3 0 0,0
22.10.2017 20:00:00 8,1 7,1 7 4 18 10 SW 1016,6 0 0,1
22.10.2017 19:00:00 8,6 7,2 10 6 27 14 SW 1016,1 0 0,0
22.10.2017 18:00:00 9,0 7,8 12 6 28 15 SW 1015,5 0 0,1
22.10.2017 17:00:00 9,2 7,8 10 5 28 15 WSW 1015,3 0 0,1
22.10.2017 16:00:00 9,7 7,0 17 9 40 22 SW 1014,9 0 0,0
22.10.2017 15:00:00 11,0 7,6 18 10 37 20 WSW 1014,3 10 0,0
22.10.2017 14:00:00 10,2 7,6 14 8 34 18 WSW 1014,1 8 0,0
22.10.2017 13:00:00 10,2 8,3 18 10 39 21 SW 1013,8 14 0,0
22.10.2017 12:00:00 9,5 8,7 14 8 29 16 SW 1013,5 12 0,0
22.10.2017 11:00:00 8,2 7,9 16 9 37 20 SW 1013,5 0 0,1
22.10.2017 10:00:00 - - - - - - - - - -
22.10.2017 09:00:00 - - - - - - - - - -
22.10.2017 08:00:00 7,9 7,4 22 12 44 24 SSW 1012,2 0 1,3
22.10.2017 07:00:00 7,9 7,4 21 11 42 23 SSW 1012,1 0 1,4
22.10.2017 06:00:00 8,0 7,5 24 13 49 26 SSW 1011,9 0 2,6
22.10.2017 05:00:00 8,6 7,2 25 14 45 24 SSW 1011,8 0 0,4
22.10.2017 04:00:00 9,4 6,7 24 13 48 26 S 1011,8 0 0,0
22.10.2017 03:00:00 9,2 6,8 23 13 48 26 SSW 1012,1 0 0,0
22.10.2017 02:00:00 9,6 7,0 25 14 43 23 S 1012,0 0 0,0
22.10.2017 01:00:00 9,8 7,0 23 12 43 23 S 1012,4 0 0,0
22.10.2017 00:00:00 10,2 7,0 22 12 35 19 S 1012,6 0 0,0
21.10.2017 23:00:00 10,3 7,4 18 10 33 18 SSW 1012,6 0 0,0
21.10.2017 22:00:00 10,9 7,1 20 11 37 20 SSW 1012,1 0 0,0
21.10.2017 21:00:00 11,5 7,4 21 12 38 21 SSW 1011,9 0 0,0
21.10.2017 20:00:00 11,8 9,3 22 12 42 23 S 1011,4 0 0,0
21.10.2017 19:00:00 12,3 9,5 21 11 37 20 SSW 1011,0 0 0,0
21.10.2017 18:00:00 12,8 10,8 17 9 34 18 S 1011,0 22 1,2
21.10.2017 17:00:00 13,9 9,3 19 10 37 20 SSW 1011,0 26 0,0
21.10.2017 16:00:00 15,6 9,7 19 10 46 25 SSW 1010,9 28 0,0
21.10.2017 15:00:00 15,1 10,7 19 10 43 23 SSW 1011,3 18 0,0
21.10.2017 14:00:00 15,0 11,1 18 10 42 23 SSW 1011,4 3 0,0
21.10.2017 13:00:00 14,5 10,5 22 12 41 22 SSW 1011,7 0 0,0
21.10.2017 12:00:00 14,8 12,4 19 10 37 20 SSW 1011,5 0 0,0
21.10.2017 11:00:00 14,2 13,2 21 11 44 24 SSW 1011,4 0 0,0
21.10.2017 10:00:00 13,8 13,3 24 13 46 25 SSW 1010,8 0 0,2
21.10.2017 09:00:00 13,2 12,9 22 12 35 19 S 1010,8 0 0,3
21.10.2017 08:00:00 13,1 12,4 18 10 35 19 S 1010,3 0 0,1
21.10.2017 07:00:00 12,5 11,1 19 10 33 18 S 1010,6 0 0,0
21.10.2017 06:00:00 11,2 10,1 19 10 40 22 S 1010,9 0 0,0
21.10.2017 05:00:00 10,7 9,2 17 9 30 16 S 1011,5 0 0,0
21.10.2017 04:00:00 10,6 8,1 16 9 31 17 S 1012,3 0 0,0
21.10.2017 03:00:00 10,9 7,7 14 8 28 15 S 1012,8 0 0,0
21.10.2017 02:00:00 11,0 7,9 14 8 25 13 S 1013,1 0 0,0
21.10.2017 01:00:00 10,5 7,8 11 6 19 10 S 1013,5 0 0,0
21.10.2017 00:00:00 10,9 7,7 13 7 24 13 S 1013,8 0 0,0
20.10.2017 23:00:00 10,1 7,3 9 5 15 8 S 1014,0 0 0,0
20.10.2017 22:00:00 10,0 7,2 10 5 18 10 S 1014,3 0 0,0
20.10.2017 21:00:00 10,1 7,8 10 6 18 10 S 1014,2 0 0,0
20.10.2017 20:00:00 9,7 7,3 7 4 14 7 S 1014,3 0 0,0
20.10.2017 19:00:00 11,6 7,2 10 5 26 14 S 1013,6 0 0,0
20.10.2017 18:00:00 13,2 7,0 16 8 35 19 SSW 1013,1 33 0,0
20.10.2017 17:00:00 14,0 7,3 23 12 42 23 SSW 1012,6 43 0,0
20.10.2017 16:00:00 13,2 8,5 20 11 37 20 SSW 1012,4 1 0,0
20.10.2017 15:00:00 13,3 8,8 16 9 42 23 SSW 1012,1 3 0,0
20.10.2017 14:00:00 14,6 8,9 21 11 48 26 SSW 1011,7 44 0,0
20.10.2017 13:00:00 13,6 9,3 21 11 48 26 SSW 1011,5 41 0,0
20.10.2017 12:00:00 13,3 9,4 24 13 47 26 SSW 1011,0 35 0,0
20.10.2017 11:00:00 12,4 9,7 21 12 51 28 SSW 1010,4 60 0,0
20.10.2017 10:00:00 11,5 9,7 22 12 42 23 SSW 1009,8 43 0,0
20.10.2017 09:00:00 11,3 10,6 18 10 35 19 SSW 1008,7 3 0,0
20.10.2017 08:00:00 11,5 10,6 18 10 35 19 SSW 1007,7 0 0,9
20.10.2017 07:00:00 13,4 12,9 20 11 47 26 S 1006,8 0 2,9
20.10.2017 06:00:00 15,3 11,8 19 10 41 22 S 1006,2 0 0,0
20.10.2017 05:00:00 15,3 11,8 19 10 33 18 S 1006,7 0 0,0
20.10.2017 04:00:00 15,4 11,9 17 9 34 18 S 1007,2 0 0,0
20.10.2017 03:00:00 15,8 12,2 18 10 35 19 S 1007,4 0 0,0
20.10.2017 02:00:00 16,8 11,6 18 10 36 20 S 1007,5 0 0,0
20.10.2017 01:00:00 17,5 11,3 18 10 39 21 S 1007,4 0 0,0
20.10.2017 00:00:00 17,8 10,8 19 10 41 22 S 1007,4 0 0,0
19.10.2017 23:00:00 17,6 10,9 16 9 29 16 S 1007,3 0 0,0
19.10.2017 22:00:00 18,1 11,1 13 7 25 14 SSE 1007,5 0 0,0
19.10.2017 21:00:00 17,8 11,7 16 8 31 17 S 1007,7 0 0,0
19.10.2017 20:00:00 17,9 12,6 11 6 27 15 SSE 1008,0 0 0,0
19.10.2017 19:00:00 19,1 13,2 15 8 26 14 S 1007,8 0 0,0
19.10.2017 18:00:00 20,2 13,9 14 8 34 19 S 1007,4 15 0,0
19.10.2017 17:00:00 20,8 13,6 19 10 41 22 S 1007,5 59 0,0
19.10.2017 16:00:00 21,4 13,5 16 9 41 22 S 1007,6 60 0,0
19.10.2017 15:00:00 20,9 13,3 18 10 34 19 S 1008,1 60 0,0
19.10.2017 14:00:00 20,3 13,1 14 8 - - S 1008,7 - -
19.10.2017 13:00:00 19,1 12,9 14 7 27 15 SSE 1009,5 59 0,0
19.10.2017 12:00:00 15,3 11,7 4 2 19 10 E 1010,2 13 0,0
19.10.2017 11:00:00 13,8 11,7 4 2 10 5 E 1010,7 40 0,0
19.10.2017 10:00:00 12,1 11,5 4 2 10 6 ENE 1010,8 38 0,0
19.10.2017 09:00:00 9,7 9,6 7 4 11 6 ENE 1010,7 5 0,0
19.10.2017 08:00:00 7,4 7,0 4 2 12 6 SSE 1011,1 0 0,0
19.10.2017 07:00:00 9,6 9,5 5 3 11 6 ENE 1011,1 0 0,0
19.10.2017 06:00:00 9,0 8,7 5 3 10 6 E 1011,1 0 0,0
19.10.2017 05:00:00 10,1 9,9 7 4 10 5 NE 1011,2 0 0,0
19.10.2017 04:00:00 9,8 9,4 4 2 8 4 ENE 1011,8 0 0,0
19.10.2017 03:00:00 10,6 10,1 4 2 6 3 E 1012,2 0 0,0
19.10.2017 02:00:00 11,7 11,1 4 2 5 3 ESE 1011,9 0 0,0
19.10.2017 01:00:00 12,2 11,4 4 2 7 4 E 1012,2 0 0,0
19.10.2017 00:00:00 12,2 11,4 0 0 6 3 N 1012,4 0 0,0
18.10.2017 23:00:00 13,5 11,9 4 2 5 3 ENE 1012,5 0 0,0
18.10.2017 22:00:00 13,6 11,8 4 2 6 3 NE 1012,3 0 0,0
18.10.2017 21:00:00 15,0 12,0 4 2 12 7 E 1012,3 0 0,0
18.10.2017 20:00:00 16,1 12,5 4 2 8 5 SE 1012,1 0 0,0
18.10.2017 19:00:00 16,9 12,6 4 2 14 8 ESE 1011,8 0 0,0
18.10.2017 18:00:00 18,3 12,8 6 3 17 9 S 1011,7 42 0,0
18.10.2017 17:00:00 20,0 13,2 10 5 22 12 SSW 1011,5 60 0,0
18.10.2017 16:00:00 20,7 13,6 9 5 18 10 SSW 1011,5 60 0,0
18.10.2017 15:00:00 20,4 13,5 10 6 26 14 S 1011,8 60 0,0
18.10.2017 14:00:00 19,6 13,2 14 8 24 13 S 1012,4 60 0,0
18.10.2017 13:00:00 18,5 12,8 14 8 23 12 S 1012,8 60 0,0
18.10.2017 12:00:00 17,7 12,6 12 6 19 11 S 1012,9 60 0,0
18.10.2017 11:00:00 14,8 10,5 12 6 21 12 SSE 1013,4 60 0,0
18.10.2017 10:00:00 13,0 9,6 10 5 21 11 SSE 1013,7 60 0,0
18.10.2017 09:00:00 11,6 8,8 15 8 25 13 SSE 1013,6 23 0,0
18.10.2017 08:00:00 11,7 8,8 11 6 18 10 S 1013,3 0 0,0
18.10.2017 07:00:00 12,0 9,3 9 5 16 9 S 1013,4 0 0,0
18.10.2017 06:00:00 11,6 10,2 8 4 13 7 S 1013,5 0 0,0
18.10.2017 05:00:00 10,5 10,2 0 0 15 8 N 1013,8 0 0,0
18.10.2017 04:00:00 10,7 10,7 4 2 8 5 WSW 1014,3 0 0,0
18.10.2017 03:00:00 11,0 10,9 4 2 10 6 ENE 1014,6 0 0,0
18.10.2017 02:00:00 11,3 11,3 7 4 9 5 ENE 1014,9 0 0,0
18.10.2017 01:00:00 11,7 11,5 5 3 7 4 E 1015,5 0 0,0
18.10.2017 00:00:00 12,7 12,5 0 0 10 5 N 1015,9 0 0,0
17.10.2017 23:00:00 14,2 14,0 4 2 7 4 NE 1016,1 0 0,0
17.10.2017 22:00:00 14,7 14,0 4 2 10 5 ENE 1016,5 0 0,0
17.10.2017 21:00:00 15,6 14,6 5 3 8 4 NE 1016,8 0 0,0
17.10.2017 20:00:00 16,3 14,8 4 2 9 5 NE 1017,1 0 0,0
17.10.2017 19:00:00 17,3 15,1 4 2 8 4 NE 1017,2 0 0,0
17.10.2017 18:00:00 18,6 15,4 4 2 8 5 NNE 1017,5 0 0,0
17.10.2017 17:00:00 19,8 15,7 4 2 9 5 ENE 1017,9 0 0,0

tt = Température de l'air
td = dewpoint
ff = Vitesse du vent
fx = gusts
dd = Direction du vent
ppp = reduced air pressure
sd = Ensoleillement
rr = Quantités de précipitations

stations d'obs. à proximité